sensor_id;sensor_type;location;lat;lon;timestamp;pressure;altitude;pressure_sealevel;temperature;humidity
44027;BME280;29696;55.698;37.460;2022-12-15T00:02:30;99725.03;;;-3.91;78.47
44027;BME280;29696;55.698;37.460;2022-12-15T00:05:15;99727.53;;;-3.89;78.56
44027;BME280;29696;55.698;37.460;2022-12-15T00:08:06;99721.50;;;-3.88;78.42
44027;BME280;29696;55.698;37.460;2022-12-15T00:10:51;99728.44;;;-3.90;78.38
44027;BME280;29696;55.698;37.460;2022-12-15T00:13:36;99736.19;;;-3.90;78.54
44027;BME280;29696;55.698;37.460;2022-12-15T00:16:20;99741.28;;;-3.87;78.43
44027;BME280;29696;55.698;37.460;2022-12-15T00:19:04;99745.53;;;-3.86;78.18
44027;BME280;29696;55.698;37.460;2022-12-15T00:21:49;99747.13;;;-3.80;78.54
44027;BME280;29696;55.698;37.460;2022-12-15T00:24:33;99741.84;;;-3.76;78.32
44027;BME280;29696;55.698;37.460;2022-12-15T00:27:18;99746.91;;;-3.73;78.39
44027;BME280;29696;55.698;37.460;2022-12-15T00:30:04;99751.19;;;-3.72;78.40
44027;BME280;29696;55.698;37.460;2022-12-15T00:32:48;99755.75;;;-3.81;78.21
44027;BME280;29696;55.698;37.460;2022-12-15T00:35:33;99755.78;;;-3.83;78.37
44027;BME280;29696;55.698;37.460;2022-12-15T00:38:18;99749.84;;;-3.85;78.21
44027;BME280;29696;55.698;37.460;2022-12-15T00:41:02;99751.66;;;-3.88;78.34
44027;BME280;29696;55.698;37.460;2022-12-15T00:43:29;99756.81;;;-3.88;78.21
44027;BME280;29696;55.698;37.460;2022-12-15T00:45:55;99758.59;;;-3.91;78.12
44027;BME280;29696;55.698;37.460;2022-12-15T00:48:40;99751.66;;;-3.88;78.31
44027;BME280;29696;55.698;37.460;2022-12-15T00:51:06;99753.28;;;-3.86;78.28
44027;BME280;29696;55.698;37.460;2022-12-15T00:53:32;99755.00;;;-3.85;78.40
44027;BME280;29696;55.698;37.460;2022-12-15T00:56:17;99761.81;;;-3.82;78.50
44027;BME280;29696;55.698;37.460;2022-12-15T00:59:01;99760.19;;;-3.86;78.43
44027;BME280;29696;55.698;37.460;2022-12-15T01:01:46;99757.66;;;-3.88;78.41
44027;BME280;29696;55.698;37.460;2022-12-15T01:04:30;99751.66;;;-3.88;78.36
44027;BME280;29696;55.698;37.460;2022-12-15T01:07:15;99761.03;;;-3.86;78.24
44027;BME280;29696;55.698;37.460;2022-12-15T01:09:59;99755.88;;;-3.86;78.19
44027;BME280;29696;55.698;37.460;2022-12-15T01:12:44;99765.25;;;-3.83;78.44
44027;BME280;29696;55.698;37.460;2022-12-15T01:15:29;99766.09;;;-3.81;78.35
44027;BME280;29696;55.698;37.460;2022-12-15T01:18:13;99784.13;;;-3.80;78.17
44027;BME280;29696;55.698;37.460;2022-12-15T01:20:59;99786.63;;;-3.77;78.50
44027;BME280;29696;55.698;37.460;2022-12-15T01:23:25;99784.91;;;-3.78;78.18
44027;BME280;29696;55.698;37.460;2022-12-15T01:25:52;99781.47;;;-3.77;78.45
44027;BME280;29696;55.698;37.460;2022-12-15T01:28:18;99771.22;;;-3.80;78.24
44027;BME280;29696;55.698;37.460;2022-12-15T01:30:44;99785.16;;;-3.87;78.20
44027;BME280;29696;55.698;37.460;2022-12-15T01:33:11;99783.63;;;-3.94;78.17
44027;BME280;29696;55.698;37.460;2022-12-15T01:35:37;99789.81;;;-4.01;77.89
44027;BME280;29696;55.698;37.460;2022-12-15T01:38:03;99790.88;;;-4.08;77.79
44027;BME280;29696;55.698;37.460;2022-12-15T01:40:29;99791.94;;;-4.16;77.57
44027;BME280;29696;55.698;37.460;2022-12-15T01:43:18;99790.44;;;-4.26;77.72
44027;BME280;29696;55.698;37.460;2022-12-15T01:48:45;99804.69;;;-4.47;77.63
44027;BME280;29696;55.698;37.460;2022-12-15T01:51:23;99806.53;;;-4.52;77.56
44027;BME280;29696;55.698;37.460;2022-12-15T01:53:54;99805.00;;;-4.59;77.79
44027;BME280;29696;55.698;37.460;2022-12-15T01:56:22;99799.91;;;-4.62;78.11
44027;BME280;29696;55.698;37.460;2022-12-15T01:58:49;99803.66;;;-4.75;77.80
44027;BME280;29696;55.698;37.460;2022-12-15T02:01:16;99807.22;;;-4.81;78.15
44027;BME280;29696;55.698;37.460;2022-12-15T02:03:42;99809.03;;;-4.86;78.28
44027;BME280;29696;55.698;37.460;2022-12-15T02:06:10;99805.69;;;-4.90;78.60
44027;BME280;29696;55.698;37.460;2022-12-15T02:08:36;99806.66;;;-4.95;78.83
44027;BME280;29696;55.698;37.460;2022-12-15T02:22:31;99824.00;;;-5.03;79.92
44027;BME280;29696;55.698;37.460;2022-12-15T02:27:57;99829.66;;;-4.86;80.72
44027;BME280;29696;55.698;37.460;2022-12-15T02:33:34;99835.28;;;-4.69;80.68
44027;BME280;29696;55.698;37.460;2022-12-15T02:36:08;99836.91;;;-4.65;80.75
44027;BME280;29696;55.698;37.460;2022-12-15T02:38:38;99838.50;;;-4.57;81.06
44027;BME280;29696;55.698;37.460;2022-12-15T02:41:27;99840.06;;;-4.52;80.88
44027;BME280;29696;55.698;37.460;2022-12-15T02:43:52;99847.72;;;-4.47;80.80
44027;BME280;29696;55.698;37.460;2022-12-15T02:46:21;99848.47;;;-4.44;80.66
44027;BME280;29696;55.698;37.460;2022-12-15T03:00:05;99836.78;;;-4.21;81.44
44027;BME280;29696;55.698;37.460;2022-12-15T03:02:32;99839.25;;;-4.17;81.17
44027;BME280;29696;55.698;37.460;2022-12-15T03:05:02;99840.97;;;-4.16;80.80
44027;BME280;29696;55.698;37.460;2022-12-15T03:07:28;99853.03;;;-4.18;80.69
44027;BME280;29696;55.698;37.460;2022-12-15T03:09:55;99833.31;;;-4.20;80.36
44027;BME280;29696;55.698;37.460;2022-12-15T03:12:22;99839.41;;;-4.23;80.29
44027;BME280;29696;55.698;37.460;2022-12-15T03:14:48;99841.13;;;-4.23;80.28
44027;BME280;29696;55.698;37.460;2022-12-15T03:17:14;99844.47;;;-4.20;80.25
44027;BME280;29696;55.698;37.460;2022-12-15T03:19:40;99844.38;;;-4.15;80.31
44027;BME280;29696;55.698;37.460;2022-12-15T03:22:06;99843.47;;;-4.13;80.60
44027;BME280;29696;55.698;37.460;2022-12-15T03:24:32;99845.97;;;-4.09;80.48
44027;BME280;29696;55.698;37.460;2022-12-15T03:26:58;99848.50;;;-4.08;80.69
44027;BME280;29696;55.698;37.460;2022-12-15T03:29:24;99851.94;;;-4.07;80.53
44027;BME280;29696;55.698;37.460;2022-12-15T03:31:50;99845.03;;;-4.07;80.68
44027;BME280;29696;55.698;37.460;2022-12-15T03:34:16;99845.81;;;-4.03;80.14
44027;BME280;29696;55.698;37.460;2022-12-15T03:36:42;99848.41;;;-4.03;80.14
44027;BME280;29696;55.698;37.460;2022-12-15T03:39:08;99851.00;;;-4.03;80.17
44027;BME280;29696;55.698;37.460;2022-12-15T03:41:34;99855.22;;;-4.01;80.24
44027;BME280;29696;55.698;37.460;2022-12-15T03:44:00;99847.50;;;-4.01;80.06
44027;BME280;29696;55.698;37.460;2022-12-15T03:46:26;99852.56;;;-3.98;80.22
44027;BME280;29696;55.698;37.460;2022-12-15T03:48:53;99847.34;;;-3.95;80.18
44027;BME280;29696;55.698;37.460;2022-12-15T03:51:19;99859.28;;;-3.92;79.94
44027;BME280;29696;55.698;37.460;2022-12-15T03:53:45;99862.03;;;-3.98;79.84
44027;BME280;29696;55.698;37.460;2022-12-15T03:56:14;99865.41;;;-3.95;79.85
44027;BME280;29696;55.698;37.460;2022-12-15T03:58:40;99866.28;;;-3.96;79.64
44027;BME280;29696;55.698;37.460;2022-12-15T04:03:56;99869.78;;;-3.98;79.47
44027;BME280;29696;55.698;37.460;2022-12-15T04:06:22;99870.56;;;-3.95;79.65
44027;BME280;29696;55.698;37.460;2022-12-15T04:08:48;99874.00;;;-3.96;79.55
44027;BME280;29696;55.698;37.460;2022-12-15T04:11:14;99873.16;;;-3.95;79.57
44027;BME280;29696;55.698;37.460;2022-12-15T04:13:41;99882.53;;;-3.92;79.57
44027;BME280;29696;55.698;37.460;2022-12-15T04:16:07;99880.81;;;-3.92;79.32
44027;BME280;29696;55.698;37.460;2022-12-15T04:18:33;99886.91;;;-3.94;79.37
44027;BME280;29696;55.698;37.460;2022-12-15T04:20:59;99888.66;;;-3.96;79.11
44027;BME280;29696;55.698;37.460;2022-12-15T04:23:25;99891.28;;;-3.98;79.12
44027;BME280;29696;55.698;37.460;2022-12-15T04:25:51;99891.28;;;-3.98;79.09
44027;BME280;29696;55.698;37.460;2022-12-15T04:28:36;99890.41;;;-3.98;79.03
44027;BME280;29696;55.698;37.460;2022-12-15T04:31:24;99885.41;;;-4.04;78.94
44027;BME280;29696;55.698;37.460;2022-12-15T04:34:11;99888.13;;;-4.10;78.91
44027;BME280;29696;55.698;37.460;2022-12-15T04:36:56;99897.63;;;-4.11;79.01
44027;BME280;29696;55.698;37.460;2022-12-15T04:39:42;99891.59;;;-4.11;78.94
44027;BME280;29696;55.698;37.460;2022-12-15T04:42:29;99888.19;;;-4.12;78.89
44027;BME280;29696;55.698;37.460;2022-12-15T04:45:16;99898.50;;;-4.12;79.02
44027;BME280;29696;55.698;37.460;2022-12-15T04:48:02;99899.34;;;-4.11;79.08
44027;BME280;29696;55.698;37.460;2022-12-15T04:50:47;99907.94;;;-4.11;78.95
44027;BME280;29696;55.698;37.460;2022-12-15T04:53:31;99904.50;;;-4.11;78.81
44027;BME280;29696;55.698;37.460;2022-12-15T04:56:16;99914.78;;;-4.10;78.91
44027;BME280;29696;55.698;37.460;2022-12-15T04:59:00;99919.00;;;-4.06;78.80
44027;BME280;29696;55.698;37.460;2022-12-15T05:01:45;99921.63;;;-4.07;78.92
44027;BME280;29696;55.698;37.460;2022-12-15T05:04:30;99920.69;;;-4.03;79.00
44027;BME280;29696;55.698;37.460;2022-12-15T05:07:14;99920.56;;;-3.99;79.13
44027;BME280;29696;55.698;37.460;2022-12-15T05:09:58;99924.84;;;-3.98;79.01
44027;BME280;29696;55.698;37.460;2022-12-15T05:12:43;99931.88;;;-4.04;78.96
44027;BME280;29696;55.698;37.460;2022-12-15T05:15:28;99927.63;;;-4.07;79.05
44027;BME280;29696;55.698;37.460;2022-12-15T05:18:12;99932.78;;;-4.07;78.95
44027;BME280;29696;55.698;37.460;2022-12-15T05:20:57;99931.09;;;-4.08;78.97
44027;BME280;29696;55.698;37.460;2022-12-15T05:23:42;99928.66;;;-4.14;78.65
44027;BME280;29696;55.698;37.460;2022-12-15T05:26:27;99931.25;;;-4.14;78.76
44027;BME280;29696;55.698;37.460;2022-12-15T05:29:11;99931.25;;;-4.14;78.98
44027;BME280;29696;55.698;37.460;2022-12-15T05:31:55;99936.41;;;-4.14;78.82
44027;BME280;29696;55.698;37.460;2022-12-15T05:34:27;99934.78;;;-4.18;78.92
44027;BME280;29696;55.698;37.460;2022-12-15T05:36:54;99933.94;;;-4.20;78.71
44027;BME280;29696;55.698;37.460;2022-12-15T05:39:21;99937.53;;;-4.26;78.79
44027;BME280;29696;55.698;37.460;2022-12-15T05:41:47;99937.72;;;-4.35;78.58
44027;BME280;29696;55.698;37.460;2022-12-15T05:44:13;99943.91;;;-4.42;78.53
44027;BME280;29696;55.698;37.460;2022-12-15T05:46:39;99937.22;;;-4.51;78.29
44027;BME280;29696;55.698;37.460;2022-12-15T05:49:06;99949.38;;;-4.57;78.40
44027;BME280;29696;55.698;37.460;2022-12-15T05:51:32;99950.38;;;-4.65;78.28
44027;BME280;29696;55.698;37.460;2022-12-15T05:53:59;99950.50;;;-4.69;78.21
44027;BME280;29696;55.698;37.460;2022-12-15T05:56:26;99960.91;;;-4.75;78.35
44027;BME280;29696;55.698;37.460;2022-12-15T05:58:52;99966.19;;;-4.82;78.22
44027;BME280;29696;55.698;37.460;2022-12-15T06:01:18;99960.28;;;-4.88;78.06
44027;BME280;29696;55.698;37.460;2022-12-15T06:03:44;99963.88;;;-4.97;77.70
44027;BME280;29696;55.698;37.460;2022-12-15T06:06:11;99955.53;;;-5.08;77.11
44027;BME280;29696;55.698;37.460;2022-12-15T06:08:38;99963.44;;;-5.17;77.45
44027;BME280;29696;55.698;37.460;2022-12-15T06:11:05;99960.13;;;-5.25;77.34
44027;BME280;29696;55.698;37.460;2022-12-15T06:13:31;99967.97;;;-5.32;77.68
44027;BME280;29696;55.698;37.460;2022-12-15T06:16:00;99974.03;;;-5.34;77.53
44027;BME280;29696;55.698;37.460;2022-12-15T06:18:45;99978.38;;;-5.38;77.96
44027;BME280;29696;55.698;37.460;2022-12-15T06:21:16;99980.97;;;-5.39;78.02
44027;BME280;29696;55.698;37.460;2022-12-15T06:23:43;99986.91;;;-5.36;78.41
44027;BME280;29696;55.698;37.460;2022-12-15T06:28:56;99987.78;;;-5.35;78.80
44027;BME280;29696;55.698;37.460;2022-12-15T06:31:23;100002.41;;;-5.39;78.80
44027;BME280;29696;55.698;37.460;2022-12-15T06:33:50;99999.00;;;-5.39;79.07
44027;BME280;29696;55.698;37.460;2022-12-15T06:36:17;100004.97;;;-5.37;79.39
44027;BME280;29696;55.698;37.460;2022-12-15T06:38:43;100004.09;;;-5.36;79.41
44027;BME280;29696;55.698;37.460;2022-12-15T06:41:10;100012.66;;;-5.36;79.62
44027;BME280;29696;55.698;37.460;2022-12-15T06:43:37;100018.69;;;-5.35;79.63
44027;BME280;29696;55.698;37.460;2022-12-15T06:46:03;100022.22;;;-5.42;79.21
44027;BME280;29696;55.698;37.460;2022-12-15T06:48:29;100024.91;;;-5.48;79.58
44027;BME280;29696;55.698;37.460;2022-12-15T06:50:55;100028.31;;;-5.48;79.73
44027;BME280;29696;55.698;37.460;2022-12-15T06:53:22;100030.84;;;-5.45;79.96
44027;BME280;29696;55.698;37.460;2022-12-15T06:55:49;100026.47;;;-5.40;80.19
44027;BME280;29696;55.698;37.460;2022-12-15T06:58:15;100029.94;;;-5.41;79.97
44027;BME280;29696;55.698;37.460;2022-12-15T07:00:42;100023.09;;;-5.43;79.98
44027;BME280;29696;55.698;37.460;2022-12-15T07:03:09;100026.47;;;-5.40;80.17
44027;BME280;29696;55.698;37.460;2022-12-15T07:05:37;100031.59;;;-5.37;80.12
44027;BME280;29696;55.698;37.460;2022-12-15T07:08:03;100034.16;;;-5.35;80.28
44027;BME280;29696;55.698;37.460;2022-12-15T07:10:29;100038.38;;;-5.31;80.31
44027;BME280;29696;55.698;37.460;2022-12-15T07:12:55;100026.22;;;-5.24;80.41
44027;BME280;29696;55.698;37.460;2022-12-15T07:15:22;100033.00;;;-5.19;80.40
44027;BME280;29696;55.698;37.460;2022-12-15T07:17:48;100033.81;;;-5.15;80.38
44027;BME280;29696;55.698;37.460;2022-12-15T07:20:15;100035.53;;;-5.14;80.52
44027;BME280;29696;55.698;37.460;2022-12-15T07:22:41;100046.78;;;-5.21;80.13
44027;BME280;29696;55.698;37.460;2022-12-15T07:25:07;100049.41;;;-5.24;79.83
44027;BME280;29696;55.698;37.460;2022-12-15T07:27:34;100050.28;;;-5.25;79.76
44027;BME280;29696;55.698;37.460;2022-12-15T07:30:00;100040.00;;;-5.25;79.65
44027;BME280;29696;55.698;37.460;2022-12-15T07:32:26;100034.88;;;-5.29;79.49
44027;BME280;29696;55.698;37.460;2022-12-15T07:34:52;100041.78;;;-5.29;79.48
44027;BME280;29696;55.698;37.460;2022-12-15T07:37:18;100038.31;;;-5.30;79.51
44027;BME280;29696;55.698;37.460;2022-12-15T07:39:44;100039.16;;;-5.28;79.59
44027;BME280;29696;55.698;37.460;2022-12-15T07:42:10;100045.28;;;-5.35;79.00
44027;BME280;29696;55.698;37.460;2022-12-15T07:44:36;100040.19;;;-5.39;78.69
44027;BME280;29696;55.698;37.460;2022-12-15T07:47:02;100046.28;;;-5.43;78.81
44027;BME280;29696;55.698;37.460;2022-12-15T07:49:28;100047.13;;;-5.41;79.00
44027;BME280;29696;55.698;37.460;2022-12-15T07:51:54;100056.44;;;-5.36;79.29
44027;BME280;29696;55.698;37.460;2022-12-15T07:54:23;100059.91;;;-5.35;79.22
44027;BME280;29696;55.698;37.460;2022-12-15T07:56:49;100058.13;;;-5.33;79.41
44027;BME280;29696;55.698;37.460;2022-12-15T07:59:15;100057.19;;;-5.28;79.20
44027;BME280;29696;55.698;37.460;2022-12-15T08:01:41;100061.44;;;-5.25;79.27
44027;BME280;29696;55.698;37.460;2022-12-15T08:04:07;100054.72;;;-5.32;79.08
44027;BME280;29696;55.698;37.460;2022-12-15T08:06:35;100053.81;;;-5.33;79.01
44027;BME280;29696;55.698;37.460;2022-12-15T08:09:01;100049.56;;;-5.34;78.78
44027;BME280;29696;55.698;37.460;2022-12-15T08:11:27;100047.81;;;-5.32;78.67
44027;BME280;29696;55.698;37.460;2022-12-15T08:13:53;100049.41;;;-5.24;78.99
44027;BME280;29696;55.698;37.460;2022-12-15T08:16:19;100045.81;;;-5.14;79.06
44027;BME280;29696;55.698;37.460;2022-12-15T08:18:45;100037.91;;;-5.03;79.16
44027;BME280;29696;55.698;37.460;2022-12-15T08:21:11;100042.16;;;-5.01;79.03
44027;BME280;29696;55.698;37.460;2022-12-15T08:23:38;100052.44;;;-4.99;78.98
44027;BME280;29696;55.698;37.460;2022-12-15T08:26:06;100052.34;;;-4.93;78.71
44027;BME280;29696;55.698;37.460;2022-12-15T08:28:33;100063.38;;;-4.87;78.69
44027;BME280;29696;55.698;37.460;2022-12-15T08:31:18;100059.81;;;-4.78;78.72
44027;BME280;29696;55.698;37.460;2022-12-15T08:33:45;100063.00;;;-4.67;78.73
44027;BME280;29696;55.698;37.460;2022-12-15T08:36:12;100062.94;;;-4.62;78.33
44027;BME280;29696;55.698;37.460;2022-12-15T08:38:38;100056.81;;;-4.56;78.32
44027;BME280;29696;55.698;37.460;2022-12-15T08:41:08;100054.34;;;-4.63;78.12
44027;BME280;29696;55.698;37.460;2022-12-15T08:43:35;100052.75;;;-4.70;77.42
44027;BME280;29696;55.698;37.460;2022-12-15T08:46:02;100045.84;;;-4.66;77.26
44027;BME280;29696;55.698;37.460;2022-12-15T08:48:28;100050.94;;;-4.63;77.12
44027;BME280;29696;55.698;37.460;2022-12-15T08:50:55;100055.09;;;-4.56;77.02
44027;BME280;29696;55.698;37.460;2022-12-15T08:53:21;100057.53;;;-4.50;77.12
44027;BME280;29696;55.698;37.460;2022-12-15T08:55:47;100054.84;;;-4.42;77.01
44027;BME280;29696;55.698;37.460;2022-12-15T08:58:13;100053.00;;;-4.37;76.78
44027;BME280;29696;55.698;37.460;2022-12-15T09:00:40;100046.59;;;-4.19;76.83
44027;BME280;29696;55.698;37.460;2022-12-15T09:03:06;100041.88;;;-3.97;76.88
44027;BME280;29696;55.698;37.460;2022-12-15T09:05:36;100051.09;;;-3.87;76.84
44027;BME280;29696;55.698;37.460;2022-12-15T09:08:03;100054.56;;;-3.88;76.41
44027;BME280;29696;55.698;37.460;2022-12-15T09:10:29;100042.66;;;-3.95;76.44
44027;BME280;29696;55.698;37.460;2022-12-15T09:12:55;100047.09;;;-4.00;75.95
44027;BME280;29696;55.698;37.460;2022-12-15T09:15:21;100037.63;;;-4.01;75.72
44027;BME280;29696;55.698;37.460;2022-12-15T09:17:47;100031.88;;;-4.13;75.46
44027;BME280;29696;55.698;37.460;2022-12-15T09:20:13;100023.38;;;-4.18;75.79
44027;BME280;29696;55.698;37.460;2022-12-15T09:22:40;100015.75;;;-4.24;75.48
44027;BME280;29696;55.698;37.460;2022-12-15T09:25:06;100019.44;;;-4.37;74.51
44027;BME280;29696;55.698;37.460;2022-12-15T09:27:33;100017.81;;;-4.40;74.63
44027;BME280;29696;55.698;37.460;2022-12-15T09:30:00;100010.00;;;-4.37;74.73
44027;BME280;29696;55.698;37.460;2022-12-15T09:32:26;100006.53;;;-4.36;74.83
44027;BME280;29696;55.698;37.460;2022-12-15T09:34:52;100003.00;;;-4.31;74.74
44027;BME280;29696;55.698;37.460;2022-12-15T09:37:19;99996.91;;;-4.27;74.98
44027;BME280;29696;55.698;37.460;2022-12-15T09:39:45;99990.81;;;-4.25;74.66
44027;BME280;29696;55.698;37.460;2022-12-15T09:42:21;99998.47;;;-4.20;74.91
44027;BME280;29696;55.698;37.460;2022-12-15T09:44:48;99991.38;;;-4.10;75.09
44027;BME280;29696;55.698;37.460;2022-12-15T09:50:15;99972.31;;;-4.03;74.49
44027;BME280;29696;55.698;37.460;2022-12-15T09:52:48;99971.47;;;-4.05;74.00
44027;BME280;29696;55.698;37.460;2022-12-15T09:55:22;99959.41;;;-4.03;74.31
44027;BME280;29696;55.698;37.460;2022-12-15T09:57:50;99961.09;;;-4.02;74.23
44027;BME280;29696;55.698;37.460;2022-12-15T10:00:39;99951.47;;;-3.96;74.31
44027;BME280;29696;55.698;37.460;2022-12-15T10:08:36;99934.91;;;-3.87;74.45
44027;BME280;29696;55.698;37.460;2022-12-15T10:11:10;99925.41;;;-3.85;74.09
44027;BME280;29696;55.698;37.460;2022-12-15T10:16:47;99928.91;;;-3.87;73.88
44027;BME280;29696;55.698;37.460;2022-12-15T10:19:48;99925.41;;;-3.85;74.06
44027;BME280;29696;55.698;37.460;2022-12-15T10:22:18;99925.34;;;-3.83;74.19
44027;BME280;29696;55.698;37.460;2022-12-15T10:24:46;99921.22;;;-3.91;74.07
44027;BME280;29696;55.698;37.460;2022-12-15T10:30:03;99929.06;;;-3.94;73.77
44027;BME280;29696;55.698;37.460;2022-12-15T10:32:49;99927.28;;;-3.92;73.97
44027;BME280;29696;55.698;37.460;2022-12-15T10:35:23;99937.47;;;-3.85;73.92
44027;BME280;29696;55.698;37.460;2022-12-15T10:37:54;99939.06;;;-3.80;74.00
44027;BME280;29696;55.698;37.460;2022-12-15T10:40:41;99942.41;;;-3.76;73.88
44027;BME280;29696;55.698;37.460;2022-12-15T10:43:17;99939.78;;;-3.75;73.73
44027;BME280;29696;55.698;37.460;2022-12-15T10:45:48;99943.44;;;-3.83;73.15
44027;BME280;29696;55.698;37.460;2022-12-15T10:48:18;99940.13;;;-3.88;72.82
44027;BME280;29696;55.698;37.460;2022-12-15T10:50:44;99931.56;;;-3.92;73.01
44027;BME280;29696;55.698;37.460;2022-12-15T10:53:32;99941.00;;;-3.90;73.15
44027;BME280;29696;55.698;37.460;2022-12-15T10:56:00;99944.50;;;-3.92;73.17
44027;BME280;29696;55.698;37.460;2022-12-15T10:58:27;99947.97;;;-3.93;73.33
44027;BME280;29696;55.698;37.460;2022-12-15T11:01:06;99949.66;;;-3.92;73.19
44027;BME280;29696;55.698;37.460;2022-12-15T11:03:36;99963.38;;;-3.90;73.26
44027;BME280;29696;55.698;37.460;2022-12-15T11:06:02;99958.28;;;-3.92;73.17
44027;BME280;29696;55.698;37.460;2022-12-15T11:08:34;99969.59;;;-3.97;72.96
44027;BME280;29696;55.698;37.460;2022-12-15T11:11:01;99956.00;;;-4.05;72.66
44027;BME280;29696;55.698;37.460;2022-12-15T11:14:03;99964.00;;;-4.18;73.09
44027;BME280;29696;55.698;37.460;2022-12-15T11:16:30;99965.00;;;-4.25;73.04
44027;BME280;29696;55.698;37.460;2022-12-15T11:19:02;99970.22;;;-4.28;72.75
44027;BME280;29696;55.698;37.460;2022-12-15T11:21:38;99961.69;;;-4.30;72.93
44027;BME280;29696;55.698;37.460;2022-12-15T11:27:10;99961.00;;;-4.38;73.21
44027;BME280;29696;55.698;37.460;2022-12-15T11:29:47;99963.66;;;-4.41;73.19
44027;BME280;29696;55.698;37.460;2022-12-15T11:32:17;99956.81;;;-4.44;72.97
44027;BME280;29696;55.698;37.460;2022-12-15T11:34:47;99944.00;;;-4.47;73.35
44027;BME280;29696;55.698;37.460;2022-12-15T11:40:19;99939.75;;;-4.49;73.54
44027;BME280;29696;55.698;37.460;2022-12-15T11:45:40;99935.59;;;-4.56;73.10
44027;BME280;29696;55.698;37.460;2022-12-15T11:48:15;99927.09;;;-4.62;73.11
44027;BME280;29696;55.698;37.460;2022-12-15T11:57:01;99928.78;;;-4.59;73.37
44027;BME280;29696;55.698;37.460;2022-12-15T12:02:18;99925.53;;;-4.69;73.55
44027;BME280;29696;55.698;37.460;2022-12-15T12:19:08;99889.13;;;-4.95;73.75
44027;BME280;29696;55.698;37.460;2022-12-15T12:21:44;99895.97;;;-4.94;74.11
44027;BME280;29696;55.698;37.460;2022-12-15T12:29:47;99876.50;;;-5.08;73.53
44027;BME280;29696;55.698;37.460;2022-12-15T12:35:49;99866.19;;;-5.09;73.59
44027;BME280;29696;55.698;37.460;2022-12-15T12:38:20;99874.78;;;-5.09;73.81
44027;BME280;29696;55.698;37.460;2022-12-15T12:40:51;99866.13;;;-5.05;74.07
44027;BME280;29696;55.698;37.460;2022-12-15T12:49:17;99851.63;;;-5.12;73.42
44027;BME280;29696;55.698;37.460;2022-12-15T12:51:53;99856.91;;;-5.18;73.36
44027;BME280;29696;55.698;37.460;2022-12-15T12:57:43;99850.34;;;-5.33;73.41
44027;BME280;29696;55.698;37.460;2022-12-15T13:03:17;99847.22;;;-5.48;73.65
44027;BME280;29696;55.698;37.460;2022-12-15T13:05:45;99843.03;;;-5.54;74.14
44027;BME280;29696;55.698;37.460;2022-12-15T13:10:57;99831.16;;;-5.61;74.73
44027;BME280;29696;55.698;37.460;2022-12-15T13:13:44;99821.63;;;-5.58;74.81
44027;BME280;29696;55.698;37.460;2022-12-15T13:16:23;99811.41;;;-5.61;74.72
44027;BME280;29696;55.698;37.460;2022-12-15T13:19:00;99826.97;;;-5.68;74.54
44027;BME280;29696;55.698;37.460;2022-12-15T13:27:18;99803.84;;;-5.71;75.04
44027;BME280;29696;55.698;37.460;2022-12-15T13:32:41;99794.38;;;-5.68;74.80
44027;BME280;29696;55.698;37.460;2022-12-15T13:37:58;99787.44;;;-5.64;74.71
44027;BME280;29696;55.698;37.460;2022-12-15T13:40:29;99775.41;;;-5.62;74.88
44027;BME280;29696;55.698;37.460;2022-12-15T13:45:47;99771.75;;;-5.54;74.72
44027;BME280;29696;55.698;37.460;2022-12-15T13:53:59;99764.16;;;-5.58;73.64
44027;BME280;29696;55.698;37.460;2022-12-15T13:56:48;99760.69;;;-5.57;73.66
44027;BME280;29696;55.698;37.460;2022-12-15T13:59:55;99777.03;;;-5.60;73.39
44027;BME280;29696;55.698;37.460;2022-12-15T14:02:02;99767.66;;;-5.62;73.49
44027;BME280;29696;55.698;37.460;2022-12-15T14:04:28;99770.25;;;-5.62;73.56
44027;BME280;29696;55.698;37.460;2022-12-15T14:06:55;99759.97;;;-5.64;73.30
44027;BME280;29696;55.698;37.460;2022-12-15T14:09:23;99762.53;;;-5.64;73.60
44027;BME280;29696;55.698;37.460;2022-12-15T14:11:50;99769.38;;;-5.63;73.25
44027;BME280;29696;55.698;37.460;2022-12-15T14:14:17;99753.94;;;-5.63;73.36
44027;BME280;29696;55.698;37.460;2022-12-15T14:16:44;99758.28;;;-5.65;73.21
44027;BME280;29696;55.698;37.460;2022-12-15T14:19:12;99753.25;;;-5.71;73.10
44027;BME280;29696;55.698;37.460;2022-12-15T14:21:46;99746.44;;;-5.75;73.40
44027;BME280;29696;55.698;37.460;2022-12-15T14:27:08;99737.88;;;-5.74;73.59
44027;BME280;29696;55.698;37.460;2022-12-15T14:29:34;99743.00;;;-5.74;73.55
44027;BME280;29696;55.698;37.460;2022-12-15T14:32:00;99738.66;;;-5.70;73.72
44027;BME280;29696;55.698;37.460;2022-12-15T14:34:34;99741.22;;;-5.70;73.69
44027;BME280;29696;55.698;37.460;2022-12-15T14:37:05;99732.66;;;-5.72;73.47
44027;BME280;29696;55.698;37.460;2022-12-15T14:39:34;99744.69;;;-5.73;73.09
44027;BME280;29696;55.698;37.460;2022-12-15T14:42:02;99737.94;;;-5.77;72.88
44027;BME280;29696;55.698;37.460;2022-12-15T14:47:34;99727.63;;;-5.77;73.03
44027;BME280;29696;55.698;37.460;2022-12-15T14:50:00;99730.25;;;-5.80;72.98
44027;BME280;29696;55.698;37.460;2022-12-15T14:52:38;99725.13;;;-5.80;73.23
44027;BME280;29696;55.698;37.460;2022-12-15T15:00:51;99738.66;;;-5.70;72.83
44027;BME280;29696;55.698;37.460;2022-12-15T15:03:19;99740.34;;;-5.69;72.77
44027;BME280;29696;55.698;37.460;2022-12-15T15:05:48;99746.44;;;-5.74;72.08
44027;BME280;29696;55.698;37.460;2022-12-15T15:08:32;99749.03;;;-5.75;71.96
44027;BME280;29696;55.698;37.460;2022-12-15T15:10:59;99749.91;;;-5.78;72.28
44027;BME280;29696;55.698;37.460;2022-12-15T15:13:37;99741.34;;;-5.78;72.56
44027;BME280;29696;55.698;37.460;2022-12-15T15:16:04;99747.53;;;-5.87;72.29
44027;BME280;29696;55.698;37.460;2022-12-15T15:18:31;99748.38;;;-5.86;72.33
44027;BME280;29696;55.698;37.460;2022-12-15T15:20:58;99753.50;;;-5.86;72.42
44027;BME280;29696;55.698;37.460;2022-12-15T15:23:24;99753.50;;;-5.86;72.91
44027;BME280;29696;55.698;37.460;2022-12-15T15:26:06;99740.75;;;-5.92;72.51
44027;BME280;29696;55.698;37.460;2022-12-15T15:28:43;99736.63;;;-5.98;73.09
44027;BME280;29696;55.698;37.460;2022-12-15T15:31:42;99728.91;;;-5.98;73.38